sensor_id;sensor_type;location;lat;lon;timestamp;P1;durP1;ratioP1;P2;durP2;ratioP2
78856;SDS011;68207;50.078;19.936;2024-01-30T00:00:32;70.50;;;37.20;;
78856;SDS011;68207;50.078;19.936;2024-01-30T00:02:57;63.60;;;35.00;;
78856;SDS011;68207;50.078;19.936;2024-01-30T00:05:22;63.50;;;34.20;;
78856;SDS011;68207;50.078;19.936;2024-01-30T00:07:47;65.00;;;35.30;;
78856;SDS011;68207;50.078;19.936;2024-01-30T00:10:13;69.50;;;36.80;;
78856;SDS011;68207;50.078;19.936;2024-01-30T00:12:38;64.60;;;34.50;;
78856;SDS011;68207;50.078;19.936;2024-01-30T00:15:03;69.80;;;36.70;;
78856;SDS011;68207;50.078;19.936;2024-01-30T00:17:30;67.00;;;36.10;;
78856;SDS011;68207;50.078;19.936;2024-01-30T00:19:55;68.40;;;35.50;;
78856;SDS011;68207;50.078;19.936;2024-01-30T00:22:20;62.90;;;35.30;;
78856;SDS011;68207;50.078;19.936;2024-01-30T00:24:45;67.80;;;35.00;;
78856;SDS011;68207;50.078;19.936;2024-01-30T00:27:11;62.20;;;33.80;;
78856;SDS011;68207;50.078;19.936;2024-01-30T00:29:36;64.90;;;34.10;;
78856;SDS011;68207;50.078;19.936;2024-01-30T00:32:01;67.80;;;35.40;;
78856;SDS011;68207;50.078;19.936;2024-01-30T00:34:26;67.60;;;36.00;;
78856;SDS011;68207;50.078;19.936;2024-01-30T00:36:52;71.20;;;36.10;;
78856;SDS011;68207;50.078;19.936;2024-01-30T00:39:17;71.70;;;35.90;;
78856;SDS011;68207;50.078;19.936;2024-01-30T00:41:44;72.60;;;37.60;;
78856;SDS011;68207;50.078;19.936;2024-01-30T00:44:09;69.00;;;36.90;;
78856;SDS011;68207;50.078;19.936;2024-01-30T00:46:35;65.80;;;36.50;;
78856;SDS011;68207;50.078;19.936;2024-01-30T00:49:00;63.70;;;35.00;;
78856;SDS011;68207;50.078;19.936;2024-01-30T00:51:25;63.20;;;33.20;;
78856;SDS011;68207;50.078;19.936;2024-01-30T00:53:51;68.80;;;36.90;;
78856;SDS011;68207;50.078;19.936;2024-01-30T00:56:16;68.10;;;34.60;;
78856;SDS011;68207;50.078;19.936;2024-01-30T00:58:43;64.90;;;35.60;;
78856;SDS011;68207;50.078;19.936;2024-01-30T01:01:08;68.50;;;36.10;;
78856;SDS011;68207;50.078;19.936;2024-01-30T01:03:34;67.10;;;35.50;;
78856;SDS011;68207;50.078;19.936;2024-01-30T01:05:59;67.40;;;37.70;;
78856;SDS011;68207;50.078;19.936;2024-01-30T01:08:24;70.10;;;37.70;;
78856;SDS011;68207;50.078;19.936;2024-01-30T01:10:50;63.90;;;36.00;;
78856;SDS011;68207;50.078;19.936;2024-01-30T01:13:15;69.20;;;35.20;;
78856;SDS011;68207;50.078;19.936;2024-01-30T01:15:40;64.00;;;35.80;;
78856;SDS011;68207;50.078;19.936;2024-01-30T01:18:06;70.20;;;36.90;;
78856;SDS011;68207;50.078;19.936;2024-01-30T01:20:31;61.90;;;35.10;;
78856;SDS011;68207;50.078;19.936;2024-01-30T01:22:56;69.10;;;38.30;;
78856;SDS011;68207;50.078;19.936;2024-01-30T01:25:21;67.10;;;36.50;;
78856;SDS011;68207;50.078;19.936;2024-01-30T01:27:47;66.00;;;37.50;;
78856;SDS011;68207;50.078;19.936;2024-01-30T01:30:16;67.10;;;33.90;;
78856;SDS011;68207;50.078;19.936;2024-01-30T01:32:46;68.50;;;36.20;;
78856;SDS011;68207;50.078;19.936;2024-01-30T01:35:15;65.60;;;36.10;;
78856;SDS011;68207;50.078;19.936;2024-01-30T01:37:41;66.70;;;37.20;;
78856;SDS011;68207;50.078;19.936;2024-01-30T01:40:06;66.10;;;36.20;;
78856;SDS011;68207;50.078;19.936;2024-01-30T01:42:32;65.10;;;35.80;;
78856;SDS011;68207;50.078;19.936;2024-01-30T01:44:57;62.30;;;34.80;;
78856;SDS011;68207;50.078;19.936;2024-01-30T01:47:22;70.00;;;37.20;;
78856;SDS011;68207;50.078;19.936;2024-01-30T01:49:48;67.60;;;35.80;;
78856;SDS011;68207;50.078;19.936;2024-01-30T01:52:13;60.90;;;35.30;;
78856;SDS011;68207;50.078;19.936;2024-01-30T01:54:38;68.30;;;36.50;;
78856;SDS011;68207;50.078;19.936;2024-01-30T01:57:04;65.30;;;35.60;;
78856;SDS011;68207;50.078;19.936;2024-01-30T01:59:29;65.30;;;34.80;;
78856;SDS011;68207;50.078;19.936;2024-01-30T02:01:55;67.90;;;34.70;;
78856;SDS011;68207;50.078;19.936;2024-01-30T02:04:20;63.60;;;34.10;;
78856;SDS011;68207;50.078;19.936;2024-01-30T02:06:45;68.50;;;35.40;;
78856;SDS011;68207;50.078;19.936;2024-01-30T02:09:11;63.70;;;35.20;;
78856;SDS011;68207;50.078;19.936;2024-01-30T02:11:36;68.70;;;35.20;;
78856;SDS011;68207;50.078;19.936;2024-01-30T02:14:02;69.20;;;35.70;;
78856;SDS011;68207;50.078;19.936;2024-01-30T02:16:27;70.20;;;35.90;;
78856;SDS011;68207;50.078;19.936;2024-01-30T02:18:53;61.30;;;32.60;;
78856;SDS011;68207;50.078;19.936;2024-01-30T02:21:18;59.30;;;33.10;;
78856;SDS011;68207;50.078;19.936;2024-01-30T02:23:44;71.90;;;34.90;;
78856;SDS011;68207;50.078;19.936;2024-01-30T02:26:11;65.40;;;34.40;;
78856;SDS011;68207;50.078;19.936;2024-01-30T02:28:37;64.00;;;34.00;;
78856;SDS011;68207;50.078;19.936;2024-01-30T02:31:02;62.70;;;34.30;;
78856;SDS011;68207;50.078;19.936;2024-01-30T02:33:27;66.00;;;36.10;;
78856;SDS011;68207;50.078;19.936;2024-01-30T02:35:52;67.10;;;36.90;;
78856;SDS011;68207;50.078;19.936;2024-01-30T02:38:18;62.80;;;35.90;;
78856;SDS011;68207;50.078;19.936;2024-01-30T02:40:43;67.20;;;35.80;;
78856;SDS011;68207;50.078;19.936;2024-01-30T02:43:08;64.00;;;35.20;;
78856;SDS011;68207;50.078;19.936;2024-01-30T02:45:34;70.20;;;36.10;;
78856;SDS011;68207;50.078;19.936;2024-01-30T02:47:59;67.00;;;36.30;;
78856;SDS011;68207;50.078;19.936;2024-01-30T02:50:24;70.00;;;35.50;;
78856;SDS011;68207;50.078;19.936;2024-01-30T02:52:49;64.90;;;34.60;;
78856;SDS011;68207;50.078;19.936;2024-01-30T02:55:15;62.50;;;35.20;;
78856;SDS011;68207;50.078;19.936;2024-01-30T02:57:42;65.70;;;36.40;;
78856;SDS011;68207;50.078;19.936;2024-01-30T03:00:08;60.50;;;32.60;;
78856;SDS011;68207;50.078;19.936;2024-01-30T03:02:34;67.60;;;35.50;;
78856;SDS011;68207;50.078;19.936;2024-01-30T03:04:59;65.00;;;34.70;;
78856;SDS011;68207;50.078;19.936;2024-01-30T03:07:25;66.10;;;34.70;;
78856;SDS011;68207;50.078;19.936;2024-01-30T03:09:50;67.10;;;36.10;;
78856;SDS011;68207;50.078;19.936;2024-01-30T03:12:15;60.60;;;32.60;;
78856;SDS011;68207;50.078;19.936;2024-01-30T03:14:40;63.80;;;33.80;;
78856;SDS011;68207;50.078;19.936;2024-01-30T03:17:06;64.20;;;34.60;;
78856;SDS011;68207;50.078;19.936;2024-01-30T03:19:31;66.80;;;35.90;;
78856;SDS011;68207;50.078;19.936;2024-01-30T03:21:57;63.90;;;33.60;;
78856;SDS011;68207;50.078;19.936;2024-01-30T03:24:22;63.80;;;34.30;;
78856;SDS011;68207;50.078;19.936;2024-01-30T03:26:47;66.30;;;34.00;;
78856;SDS011;68207;50.078;19.936;2024-01-30T03:29:12;64.10;;;34.30;;
78856;SDS011;68207;50.078;19.936;2024-01-30T03:31:38;63.90;;;34.60;;
78856;SDS011;68207;50.078;19.936;2024-01-30T03:34:04;60.10;;;32.60;;
78856;SDS011;68207;50.078;19.936;2024-01-30T03:36:29;61.90;;;32.20;;
78856;SDS011;68207;50.078;19.936;2024-01-30T03:38:57;59.20;;;32.10;;
78856;SDS011;68207;50.078;19.936;2024-01-30T03:41:23;56.20;;;30.60;;
78856;SDS011;68207;50.078;19.936;2024-01-30T03:43:48;60.30;;;32.40;;
78856;SDS011;68207;50.078;19.936;2024-01-30T03:46:13;54.30;;;31.00;;
78856;SDS011;68207;50.078;19.936;2024-01-30T03:48:39;59.30;;;30.20;;
78856;SDS011;68207;50.078;19.936;2024-01-30T03:51:04;54.40;;;30.60;;
78856;SDS011;68207;50.078;19.936;2024-01-30T03:53:29;59.80;;;33.40;;
78856;SDS011;68207;50.078;19.936;2024-01-30T03:55:55;60.20;;;30.90;;
78856;SDS011;68207;50.078;19.936;2024-01-30T03:58:20;61.50;;;31.20;;
78856;SDS011;68207;50.078;19.936;2024-01-30T04:00:45;59.60;;;31.30;;
78856;SDS011;68207;50.078;19.936;2024-01-30T04:03:10;59.20;;;32.20;;
78856;SDS011;68207;50.078;19.936;2024-01-30T04:05:36;59.10;;;31.70;;
78856;SDS011;68207;50.078;19.936;2024-01-30T04:08:01;63.20;;;31.50;;
78856;SDS011;68207;50.078;19.936;2024-01-30T04:10:26;63.30;;;32.50;;
78856;SDS011;68207;50.078;19.936;2024-01-30T04:12:52;59.90;;;31.70;;
78856;SDS011;68207;50.078;19.936;2024-01-30T04:15:17;61.80;;;32.20;;
78856;SDS011;68207;50.078;19.936;2024-01-30T04:17:42;61.90;;;31.40;;
78856;SDS011;68207;50.078;19.936;2024-01-30T04:20:11;67.00;;;33.60;;
78856;SDS011;68207;50.078;19.936;2024-01-30T04:22:37;62.60;;;34.70;;
78856;SDS011;68207;50.078;19.936;2024-01-30T04:25:02;64.40;;;33.10;;
78856;SDS011;68207;50.078;19.936;2024-01-30T04:27:28;63.40;;;33.60;;
78856;SDS011;68207;50.078;19.936;2024-01-30T04:29:53;58.30;;;33.30;;
78856;SDS011;68207;50.078;19.936;2024-01-30T04:32:18;54.30;;;30.00;;
78856;SDS011;68207;50.078;19.936;2024-01-30T04:34:43;56.80;;;31.20;;
78856;SDS011;68207;50.078;19.936;2024-01-30T04:37:09;60.30;;;32.30;;
78856;SDS011;68207;50.078;19.936;2024-01-30T04:39:34;63.50;;;32.50;;
78856;SDS011;68207;50.078;19.936;2024-01-30T04:41:59;58.90;;;31.60;;
78856;SDS011;68207;50.078;19.936;2024-01-30T04:44:24;60.70;;;31.20;;
78856;SDS011;68207;50.078;19.936;2024-01-30T04:46:50;63.90;;;33.20;;
78856;SDS011;68207;50.078;19.936;2024-01-30T04:49:15;60.30;;;32.10;;
78856;SDS011;68207;50.078;19.936;2024-01-30T04:51:40;58.50;;;31.40;;
78856;SDS011;68207;50.078;19.936;2024-01-30T04:54:05;61.20;;;32.40;;
78856;SDS011;68207;50.078;19.936;2024-01-30T04:56:31;60.40;;;32.90;;
78856;SDS011;68207;50.078;19.936;2024-01-30T04:58:56;66.90;;;36.00;;
78856;SDS011;68207;50.078;19.936;2024-01-30T05:01:21;71.90;;;36.70;;
78856;SDS011;68207;50.078;19.936;2024-01-30T05:03:47;64.90;;;36.20;;
78856;SDS011;68207;50.078;19.936;2024-01-30T05:06:12;67.70;;;35.30;;
78856;SDS011;68207;50.078;19.936;2024-01-30T05:08:37;69.80;;;38.20;;
78856;SDS011;68207;50.078;19.936;2024-01-30T05:11:03;70.00;;;38.00;;
78856;SDS011;68207;50.078;19.936;2024-01-30T05:13:31;75.00;;;38.90;;
78856;SDS011;68207;50.078;19.936;2024-01-30T05:15:56;71.40;;;37.00;;
78856;SDS011;68207;50.078;19.936;2024-01-30T05:18:21;72.90;;;37.60;;
78856;SDS011;68207;50.078;19.936;2024-01-30T05:20:47;68.30;;;37.50;;
78856;SDS011;68207;50.078;19.936;2024-01-30T05:23:12;78.60;;;39.90;;
78856;SDS011;68207;50.078;19.936;2024-01-30T05:25:37;74.10;;;38.10;;
78856;SDS011;68207;50.078;19.936;2024-01-30T05:28:02;73.40;;;38.80;;
78856;SDS011;68207;50.078;19.936;2024-01-30T05:30:28;76.50;;;38.50;;
78856;SDS011;68207;50.078;19.936;2024-01-30T05:32:53;74.30;;;39.90;;
78856;SDS011;68207;50.078;19.936;2024-01-30T05:35:18;76.40;;;39.60;;
78856;SDS011;68207;50.078;19.936;2024-01-30T05:37:46;78.80;;;39.00;;
78856;SDS011;68207;50.078;19.936;2024-01-30T05:40:11;75.60;;;41.00;;
78856;SDS011;68207;50.078;19.936;2024-01-30T05:42:36;75.80;;;38.20;;
78856;SDS011;68207;50.078;19.936;2024-01-30T05:45:01;69.40;;;36.90;;
78856;SDS011;68207;50.078;19.936;2024-01-30T05:47:27;61.50;;;33.80;;
78856;SDS011;68207;50.078;19.936;2024-01-30T05:49:52;67.60;;;33.70;;
78856;SDS011;68207;50.078;19.936;2024-01-30T05:52:17;63.80;;;33.80;;
78856;SDS011;68207;50.078;19.936;2024-01-30T05:54:44;68.90;;;36.80;;
78856;SDS011;68207;50.078;19.936;2024-01-30T05:57:09;77.90;;;40.20;;
78856;SDS011;68207;50.078;19.936;2024-01-30T05:59:34;75.90;;;39.20;;
78856;SDS011;68207;50.078;19.936;2024-01-30T06:02:01;71.60;;;39.80;;
78856;SDS011;68207;50.078;19.936;2024-01-30T06:04:26;71.50;;;37.50;;
78856;SDS011;68207;50.078;19.936;2024-01-30T06:06:51;70.50;;;36.60;;
78856;SDS011;68207;50.078;19.936;2024-01-30T06:09:17;74.90;;;35.90;;
78856;SDS011;68207;50.078;19.936;2024-01-30T06:11:42;71.80;;;36.60;;
78856;SDS011;68207;50.078;19.936;2024-01-30T06:14:07;70.60;;;39.30;;
78856;SDS011;68207;50.078;19.936;2024-01-30T06:16:32;78.70;;;40.50;;
78856;SDS011;68207;50.078;19.936;2024-01-30T06:18:58;70.10;;;37.30;;
78856;SDS011;68207;50.078;19.936;2024-01-30T06:21:24;73.40;;;38.10;;
78856;SDS011;68207;50.078;19.936;2024-01-30T06:23:49;72.30;;;38.40;;
78856;SDS011;68207;50.078;19.936;2024-01-30T06:26:14;73.40;;;37.90;;
78856;SDS011;68207;50.078;19.936;2024-01-30T06:28:40;77.40;;;39.80;;
78856;SDS011;68207;50.078;19.936;2024-01-30T06:31:05;73.60;;;39.10;;
78856;SDS011;68207;50.078;19.936;2024-01-30T06:33:30;77.60;;;38.60;;
78856;SDS011;68207;50.078;19.936;2024-01-30T06:35:55;74.30;;;38.00;;
78856;SDS011;68207;50.078;19.936;2024-01-30T06:38:21;77.80;;;39.50;;
78856;SDS011;68207;50.078;19.936;2024-01-30T06:40:46;75.60;;;39.30;;
78856;SDS011;68207;50.078;19.936;2024-01-30T06:43:11;73.20;;;39.70;;
78856;SDS011;68207;50.078;19.936;2024-01-30T06:45:36;72.90;;;38.70;;
78856;SDS011;68207;50.078;19.936;2024-01-30T06:48:02;73.10;;;39.00;;
78856;SDS011;68207;50.078;19.936;2024-01-30T06:50:28;74.60;;;38.20;;
78856;SDS011;68207;50.078;19.936;2024-01-30T06:52:53;74.70;;;39.00;;
78856;SDS011;68207;50.078;19.936;2024-01-30T06:55:18;67.60;;;37.00;;
78856;SDS011;68207;50.078;19.936;2024-01-30T06:57:43;73.80;;;37.50;;
78856;SDS011;68207;50.078;19.936;2024-01-30T07:00:09;68.80;;;37.80;;
78856;SDS011;68207;50.078;19.936;2024-01-30T07:02:34;70.40;;;36.40;;
78856;SDS011;68207;50.078;19.936;2024-01-30T07:04:59;73.30;;;37.80;;
78856;SDS011;68207;50.078;19.936;2024-01-30T07:07:25;67.90;;;35.10;;
78856;SDS011;68207;50.078;19.936;2024-01-30T07:09:50;70.80;;;37.10;;
78856;SDS011;68207;50.078;19.936;2024-01-30T07:12:20;70.90;;;36.20;;
78856;SDS011;68207;50.078;19.936;2024-01-30T07:14:46;71.20;;;37.40;;
78856;SDS011;68207;50.078;19.936;2024-01-30T07:17:11;65.90;;;35.90;;
78856;SDS011;68207;50.078;19.936;2024-01-30T07:19:36;64.40;;;36.10;;
78856;SDS011;68207;50.078;19.936;2024-01-30T07:22:01;67.00;;;36.00;;
78856;SDS011;68207;50.078;19.936;2024-01-30T07:24:27;64.50;;;37.40;;
78856;SDS011;68207;50.078;19.936;2024-01-30T07:26:52;70.30;;;38.30;;
78856;SDS011;68207;50.078;19.936;2024-01-30T07:29:17;73.70;;;38.00;;
78856;SDS011;68207;50.078;19.936;2024-01-30T07:31:43;66.10;;;38.80;;
78856;SDS011;68207;50.078;19.936;2024-01-30T07:34:08;66.00;;;37.50;;
78856;SDS011;68207;50.078;19.936;2024-01-30T07:36:34;69.60;;;39.00;;
78856;SDS011;68207;50.078;19.936;2024-01-30T07:38:59;66.60;;;37.50;;
78856;SDS011;68207;50.078;19.936;2024-01-30T07:41:24;71.00;;;37.70;;
78856;SDS011;68207;50.078;19.936;2024-01-30T07:43:50;68.40;;;38.50;;
78856;SDS011;68207;50.078;19.936;2024-01-30T07:46:15;67.40;;;35.60;;
78856;SDS011;68207;50.078;19.936;2024-01-30T07:48:40;62.10;;;36.50;;
78856;SDS011;68207;50.078;19.936;2024-01-30T07:51:06;68.40;;;37.30;;
78856;SDS011;68207;50.078;19.936;2024-01-30T07:53:31;66.70;;;36.00;;
78856;SDS011;68207;50.078;19.936;2024-01-30T07:55:56;67.60;;;37.60;;
78856;SDS011;68207;50.078;19.936;2024-01-30T07:58:21;71.90;;;37.30;;
78856;SDS011;68207;50.078;19.936;2024-01-30T08:00:48;75.10;;;37.90;;
78856;SDS011;68207;50.078;19.936;2024-01-30T08:03:14;74.50;;;37.60;;
78856;SDS011;68207;50.078;19.936;2024-01-30T08:05:41;72.60;;;37.80;;
78856;SDS011;68207;50.078;19.936;2024-01-30T08:08:06;70.00;;;38.50;;
78856;SDS011;68207;50.078;19.936;2024-01-30T08:10:31;69.00;;;36.40;;
78856;SDS011;68207;50.078;19.936;2024-01-30T08:12:57;65.50;;;38.10;;
78856;SDS011;68207;50.078;19.936;2024-01-30T08:15:22;64.20;;;38.60;;
78856;SDS011;68207;50.078;19.936;2024-01-30T08:17:47;64.00;;;38.50;;
78856;SDS011;68207;50.078;19.936;2024-01-30T08:20:13;65.80;;;36.60;;
78856;SDS011;68207;50.078;19.936;2024-01-30T08:22:39;59.10;;;37.90;;
78856;SDS011;68207;50.078;19.936;2024-01-30T08:25:05;60.10;;;38.20;;
78856;SDS011;68207;50.078;19.936;2024-01-30T08:27:30;74.50;;;40.70;;
78856;SDS011;68207;50.078;19.936;2024-01-30T08:29:56;75.80;;;38.90;;
78856;SDS011;68207;50.078;19.936;2024-01-30T08:32:21;73.60;;;37.40;;
78856;SDS011;68207;50.078;19.936;2024-01-30T08:34:47;61.40;;;37.40;;
78856;SDS011;68207;50.078;19.936;2024-01-30T08:37:12;77.50;;;41.10;;
78856;SDS011;68207;50.078;19.936;2024-01-30T08:39:41;75.50;;;39.70;;
78856;SDS011;68207;50.078;19.936;2024-01-30T08:42:06;72.40;;;38.90;;
78856;SDS011;68207;50.078;19.936;2024-01-30T08:46:58;69.40;;;36.20;;
78856;SDS011;68207;50.078;19.936;2024-01-30T08:49:23;78.40;;;38.80;;
78856;SDS011;68207;50.078;19.936;2024-01-30T08:51:48;71.60;;;37.00;;
78856;SDS011;68207;50.078;19.936;2024-01-30T08:54:13;62.90;;;34.40;;
78856;SDS011;68207;50.078;19.936;2024-01-30T08:56:39;66.10;;;36.60;;
78856;SDS011;68207;50.078;19.936;2024-01-30T08:59:04;70.20;;;37.20;;
78856;SDS011;68207;50.078;19.936;2024-01-30T09:01:29;52.80;;;34.40;;
78856;SDS011;68207;50.078;19.936;2024-01-30T09:03:55;59.10;;;36.40;;
78856;SDS011;68207;50.078;19.936;2024-01-30T09:06:21;55.00;;;33.70;;
78856;SDS011;68207;50.078;19.936;2024-01-30T09:08:46;50.40;;;32.80;;
78856;SDS011;68207;50.078;19.936;2024-01-30T09:11:12;49.90;;;33.80;;
78856;SDS011;68207;50.078;19.936;2024-01-30T09:16:03;49.10;;;33.20;;
78856;SDS011;68207;50.078;19.936;2024-01-30T09:18:28;49.60;;;34.10;;
78856;SDS011;68207;50.078;19.936;2024-01-30T09:20:54;53.70;;;35.90;;
78856;SDS011;68207;50.078;19.936;2024-01-30T09:23:19;51.00;;;34.00;;
78856;SDS011;68207;50.078;19.936;2024-01-30T09:25:44;58.40;;;34.80;;
78856;SDS011;68207;50.078;19.936;2024-01-30T09:28:10;52.80;;;36.90;;
78856;SDS011;68207;50.078;19.936;2024-01-30T09:30:35;53.50;;;35.10;;
78856;SDS011;68207;50.078;19.936;2024-01-30T09:33:00;62.40;;;34.90;;
78856;SDS011;68207;50.078;19.936;2024-01-30T09:35:25;50.10;;;35.10;;
78856;SDS011;68207;50.078;19.936;2024-01-30T09:37:51;73.70;;;35.10;;
78856;SDS011;68207;50.078;19.936;2024-01-30T09:40:17;66.50;;;34.00;;
78856;SDS011;68207;50.078;19.936;2024-01-30T09:42:44;66.10;;;33.40;;
78856;SDS011;68207;50.078;19.936;2024-01-30T09:45:11;48.20;;;30.30;;
78856;SDS011;68207;50.078;19.936;2024-01-30T09:47:41;43.30;;;29.00;;
78856;SDS011;68207;50.078;19.936;2024-01-30T09:50:13;40.20;;;28.00;;
78856;SDS011;68207;50.078;19.936;2024-01-30T09:52:39;33.90;;;26.20;;
78856;SDS011;68207;50.078;19.936;2024-01-30T09:55:05;38.60;;;26.80;;
78856;SDS011;68207;50.078;19.936;2024-01-30T09:59:56;30.90;;;24.80;;
78856;SDS011;68207;50.078;19.936;2024-01-30T10:02:21;31.50;;;25.50;;
78856;SDS011;68207;50.078;19.936;2024-01-30T10:04:47;33.10;;;26.10;;
78856;SDS011;68207;50.078;19.936;2024-01-30T10:09:38;37.70;;;27.10;;
78856;SDS011;68207;50.078;19.936;2024-01-30T10:12:03;36.90;;;27.50;;
78856;SDS011;68207;50.078;19.936;2024-01-30T10:16:55;31.40;;;22.90;;
78856;SDS011;68207;50.078;19.936;2024-01-30T10:19:20;27.30;;;21.20;;
78856;SDS011;68207;50.078;19.936;2024-01-30T10:21:45;24.80;;;20.00;;
78856;SDS011;68207;50.078;19.936;2024-01-30T10:24:11;24.70;;;18.00;;
78856;SDS011;68207;50.078;19.936;2024-01-30T10:26:38;22.20;;;18.50;;
78856;SDS011;68207;50.078;19.936;2024-01-30T10:29:04;21.80;;;18.20;;
78856;SDS011;68207;50.078;19.936;2024-01-30T10:31:29;21.30;;;17.30;;
78856;SDS011;68207;50.078;19.936;2024-01-30T10:33:55;19.90;;;16.70;;
78856;SDS011;68207;50.078;19.936;2024-01-30T10:36:20;18.70;;;16.70;;
78856;SDS011;68207;50.078;19.936;2024-01-30T10:38:47;23.10;;;18.30;;
78856;SDS011;68207;50.078;19.936;2024-01-30T10:41:14;20.20;;;17.60;;
78856;SDS011;68207;50.078;19.936;2024-01-30T10:43:40;19.10;;;16.80;;
78856;SDS011;68207;50.078;19.936;2024-01-30T10:48:43;17.90;;;15.00;;
78856;SDS011;68207;50.078;19.936;2024-01-30T10:51:12;17.80;;;15.20;;
78856;SDS011;68207;50.078;19.936;2024-01-30T10:53:38;18.10;;;14.80;;
78856;SDS011;68207;50.078;19.936;2024-01-30T10:56:04;18.80;;;15.10;;
78856;SDS011;68207;50.078;19.936;2024-01-30T10:58:29;18.40;;;16.00;;
78856;SDS011;68207;50.078;19.936;2024-01-30T11:00:55;20.50;;;15.20;;
78856;SDS011;68207;50.078;19.936;2024-01-30T11:03:20;18.00;;;15.80;;
78856;SDS011;68207;50.078;19.936;2024-01-30T11:05:49;18.40;;;16.00;;
78856;SDS011;68207;50.078;19.936;2024-01-30T11:08:22;19.20;;;15.50;;
78856;SDS011;68207;50.078;19.936;2024-01-30T11:10:47;18.40;;;15.30;;
78856;SDS011;68207;50.078;19.936;2024-01-30T11:13:13;16.70;;;14.30;;
78856;SDS011;68207;50.078;19.936;2024-01-30T11:15:39;19.10;;;14.80;;
78856;SDS011;68207;50.078;19.936;2024-01-30T11:18:05;17.50;;;15.40;;
78856;SDS011;68207;50.078;19.936;2024-01-30T11:20:31;18.60;;;14.50;;
78856;SDS011;68207;50.078;19.936;2024-01-30T11:22:57;16.10;;;14.40;;
78856;SDS011;68207;50.078;19.936;2024-01-30T11:25:23;18.30;;;14.00;;
78856;SDS011;68207;50.078;19.936;2024-01-30T11:27:52;19.60;;;14.20;;
78856;SDS011;68207;50.078;19.936;2024-01-30T11:30:27;18.60;;;15.70;;
78856;SDS011;68207;50.078;19.936;2024-01-30T11:35:24;16.30;;;13.70;;
78856;SDS011;68207;50.078;19.936;2024-01-30T11:37:50;16.90;;;15.10;;
78856;SDS011;68207;50.078;19.936;2024-01-30T11:40:16;19.50;;;14.70;;
78856;SDS011;68207;50.078;19.936;2024-01-30T11:42:41;19.20;;;15.30;;
78856;SDS011;68207;50.078;19.936;2024-01-30T11:45:07;17.10;;;13.20;;
78856;SDS011;68207;50.078;19.936;2024-01-30T11:47:34;17.10;;;14.80;;
78856;SDS011;68207;50.078;19.936;2024-01-30T11:49:59;16.30;;;13.90;;
78856;SDS011;68207;50.078;19.936;2024-01-30T11:52:25;15.90;;;14.20;;
78856;SDS011;68207;50.078;19.936;2024-01-30T11:57:15;17.90;;;14.30;;
78856;SDS011;68207;50.078;19.936;2024-01-30T11:59:40;16.60;;;13.60;;
78856;SDS011;68207;50.078;19.936;2024-01-30T12:02:06;18.70;;;15.80;;
78856;SDS011;68207;50.078;19.936;2024-01-30T12:06:56;16.40;;;14.60;;
78856;SDS011;68207;50.078;19.936;2024-01-30T12:11:47;19.20;;;15.40;;
78856;SDS011;68207;50.078;19.936;2024-01-30T12:14:12;16.50;;;14.60;;
78856;SDS011;68207;50.078;19.936;2024-01-30T12:16:38;17.10;;;15.30;;
78856;SDS011;68207;50.078;19.936;2024-01-30T12:21:29;19.30;;;15.00;;
78856;SDS011;68207;50.078;19.936;2024-01-30T12:23:54;17.40;;;15.10;;
78856;SDS011;68207;50.078;19.936;2024-01-30T12:28:48;17.20;;;15.00;;
78856;SDS011;68207;50.078;19.936;2024-01-30T12:31:13;16.80;;;14.40;;
78856;SDS011;68207;50.078;19.936;2024-01-30T12:36:03;15.00;;;13.30;;
78856;SDS011;68207;50.078;19.936;2024-01-30T12:38:29;16.80;;;14.70;;
78856;SDS011;68207;50.078;19.936;2024-01-30T12:40:54;16.40;;;14.60;;
78856;SDS011;68207;50.078;19.936;2024-01-30T12:43:21;19.10;;;16.40;;
78856;SDS011;68207;50.078;19.936;2024-01-30T12:45:46;18.50;;;16.10;;
78856;SDS011;68207;50.078;19.936;2024-01-30T12:48:12;15.90;;;14.30;;
78856;SDS011;68207;50.078;19.936;2024-01-30T12:53:02;17.20;;;15.00;;
78856;SDS011;68207;50.078;19.936;2024-01-30T12:55:27;18.00;;;15.40;;
78856;SDS011;68207;50.078;19.936;2024-01-30T12:57:54;20.00;;;15.90;;
78856;SDS011;68207;50.078;19.936;2024-01-30T13:00:19;19.10;;;14.90;;
78856;SDS011;68207;50.078;19.936;2024-01-30T13:02:44;21.70;;;15.20;;
78856;SDS011;68207;50.078;19.936;2024-01-30T13:05:10;15.50;;;13.70;;
78856;SDS011;68207;50.078;19.936;2024-01-30T13:07:35;16.70;;;13.60;;
78856;SDS011;68207;50.078;19.936;2024-01-30T13:10:01;18.20;;;14.60;;
78856;SDS011;68207;50.078;19.936;2024-01-30T13:12:28;17.60;;;14.20;;
78856;SDS011;68207;50.078;19.936;2024-01-30T13:14:54;16.10;;;13.70;;
78856;SDS011;68207;50.078;19.936;2024-01-30T13:17:19;17.50;;;15.00;;
78856;SDS011;68207;50.078;19.936;2024-01-30T13:19:44;17.60;;;13.90;;
78856;SDS011;68207;50.078;19.936;2024-01-30T13:22:09;15.40;;;12.90;;
78856;SDS011;68207;50.078;19.936;2024-01-30T13:24:35;17.70;;;13.00;;
78856;SDS011;68207;50.078;19.936;2024-01-30T13:27:00;14.30;;;12.40;;
78856;SDS011;68207;50.078;19.936;2024-01-30T13:29:25;16.20;;;13.40;;
78856;SDS011;68207;50.078;19.936;2024-01-30T13:34:16;16.40;;;13.30;;
78856;SDS011;68207;50.078;19.936;2024-01-30T13:39:06;16.50;;;13.20;;
78856;SDS011;68207;50.078;19.936;2024-01-30T13:41:34;17.80;;;14.80;;
78856;SDS011;68207;50.078;19.936;2024-01-30T13:46:25;18.30;;;14.00;;
78856;SDS011;68207;50.078;19.936;2024-01-30T13:51:15;18.00;;;13.90;;
78856;SDS011;68207;50.078;19.936;2024-01-30T13:53:42;16.20;;;13.40;;
78856;SDS011;68207;50.078;19.936;2024-01-30T13:56:07;18.90;;;14.30;;
78856;SDS011;68207;50.078;19.936;2024-01-30T13:58:32;23.10;;;13.80;;
78856;SDS011;68207;50.078;19.936;2024-01-30T14:00:58;17.40;;;15.40;;
78856;SDS011;68207;50.078;19.936;2024-01-30T14:05:49;19.30;;;14.40;;
78856;SDS011;68207;50.078;19.936;2024-01-30T14:08:15;20.80;;;15.00;;
78856;SDS011;68207;50.078;19.936;2024-01-30T14:10:40;18.60;;;15.10;;
78856;SDS011;68207;50.078;19.936;2024-01-30T14:13:05;19.20;;;16.20;;
78856;SDS011;68207;50.078;19.936;2024-01-30T14:15:30;19.90;;;15.70;;
78856;SDS011;68207;50.078;19.936;2024-01-30T14:17:56;21.10;;;16.00;;
78856;SDS011;68207;50.078;19.936;2024-01-30T14:20:21;18.00;;;15.00;;
78856;SDS011;68207;50.078;19.936;2024-01-30T14:22:46;20.80;;;15.70;;
78856;SDS011;68207;50.078;19.936;2024-01-30T14:25:12;17.80;;;14.50;;
78856;SDS011;68207;50.078;19.936;2024-01-30T14:27:37;18.60;;;15.30;;
78856;SDS011;68207;50.078;19.936;2024-01-30T14:30:03;18.50;;;15.40;;
78856;SDS011;68207;50.078;19.936;2024-01-30T14:32:28;21.00;;;15.60;;
78856;SDS011;68207;50.078;19.936;2024-01-30T14:34:53;19.40;;;14.90;;
78856;SDS011;68207;50.078;19.936;2024-01-30T14:37:20;21.60;;;15.10;;
78856;SDS011;68207;50.078;19.936;2024-01-30T14:39:45;17.70;;;14.00;;
78856;SDS011;68207;50.078;19.936;2024-01-30T14:42:10;21.20;;;15.30;;
78856;SDS011;68207;50.078;19.936;2024-01-30T14:44:36;17.90;;;13.80;;